Time;durP1;ratioP1;P1;durP2;ratioP2;P2;SDS_P1;SDS_P2;PMS_P1;PMS_P2;Temp;Humidity;BMP_temperature;BMP_pressure;BME280_temperature;BME280_humidity;BME280_pressure;Samples;Min_cycle;Max_cycle;Signal;HPM_P1;HPM_P2
2022/08/26 00:01:40;;;;;;;34.50;30.58;;;21.40;99.90;;;;;;5032875;28;20029;-80
2022/08/26 00:04:06;;;;;;;38.47;31.98;;;21.30;99.90;;;;;;5046941;28;20162;-80
2022/08/26 00:06:32;;;;;;;34.97;31.23;;;21.30;99.90;;;;;;5047810;28;20116;-80
2022/08/26 00:08:58;;;;;;;34.45;30.95;;;21.20;99.90;;;;;;5043767;28;20037;-80
2022/08/26 00:11:24;;;;;;;34.17;30.60;;;21.10;99.90;;;;;;5045660;28;20151;-80
2022/08/26 00:13:49;;;;;;;32.33;28.95;;;21.10;99.90;;;;;;5046464;28;20120;-80
2022/08/26 00:16:15;;;;;;;33.15;29.45;;;21.10;99.90;;;;;;5047276;28;20041;-80
2022/08/26 00:18:41;;;;;;;34.80;30.55;;;21.10;99.90;;;;;;5046810;28;20039;-79
2022/08/26 00:21:08;;;;;;;34.35;30.55;;;21.00;99.90;;;;;;5051736;28;20070;-79
2022/08/26 00:23:34;;;;;;;34.20;30.60;;;21.00;99.90;;;;;;5047541;28;20045;-80
2022/08/26 00:26:00;;;;;;;33.33;29.85;;;21.00;99.90;;;;;;5047085;28;20044;-80
2022/08/26 00:28:26;;;;;;;32.20;28.23;;;20.90;99.90;;;;;;5044190;28;20033;-80
2022/08/26 00:30:52;;;;;;;29.08;26.08;;;20.90;99.90;;;;;;5045490;28;20052;-81
2022/08/26 00:33:19;;;;;;;31.75;25.85;;;20.90;99.90;;;;;;5046162;28;20041;-79
2022/08/26 00:35:46;;;;;;;32.75;25.60;;;20.90;99.90;;;;;;5045279;28;20123;-78
2022/08/26 00:38:12;;;;;;;29.73;24.00;;;20.90;99.90;;;;;;5029651;28;20394;-78
2022/08/26 00:40:44;;;;;;;28.42;23.60;;;20.90;99.90;;;;;;5062144;28;20430;-78
2022/08/26 00:43:10;;;;;;;32.25;22.48;;;20.90;99.90;;;;;;5045227;28;20076;-78
2022/08/26 00:46:08;;;;;;;28.90;23.10;;;20.90;99.90;;;;;;5027759;28;20060;-80
2022/08/26 00:48:36;;;;;;;29.92;20.80;;;21.00;99.90;;;;;;5011554;28;20072;-79
2022/08/26 00:51:17;;;;;;;29.10;20.83;;;21.00;99.90;;;;;;5046024;28;20040;-79
2022/08/26 00:53:54;;;;;;;28.83;21.38;;;21.00;99.90;;;;;;5046621;28;20036;-79
2022/08/26 00:56:35;;;;;;;33.13;21.23;;;21.00;99.90;;;;;;5047275;28;20387;-78
2022/08/26 00:59:05;;;;;;;31.70;20.17;;;21.00;99.90;;;;;;5041794;28;20037;-79
2022/08/26 01:01:31;;;;;;;27.60;21.30;;;21.10;99.90;;;;;;5044274;28;20519;-80
2022/08/26 01:03:58;;;;;;;28.42;20.92;;;21.10;99.90;;;;;;5046215;28;20045;-80
2022/08/26 01:06:25;;;;;;;26.25;19.48;;;21.10;99.90;;;;;;5045368;28;20048;-79
2022/08/26 01:08:51;;;;;;;28.65;20.23;;;21.10;99.90;;;;;;5043673;28;20071;-79
2022/08/26 01:11:17;;;;;;;30.17;20.67;;;21.10;99.90;;;;;;5028268;28;20542;-79
2022/08/26 01:13:43;;;;;;;28.42;20.30;;;21.00;99.90;;;;;;5046357;28;20119;-81
2022/08/26 01:16:14;;;;;;;29.95;20.58;;;21.00;99.90;;;;;;5043106;28;20049;-80
2022/08/26 01:18:42;;;;;;;28.52;18.98;;;21.00;99.90;;;;;;5043408;28;21067;-78
2022/08/26 01:21:35;;;;;;;29.20;19.65;;;21.00;99.90;;;;;;5044863;28;20044;-80
2022/08/26 01:24:01;;;;;;;27.23;18.63;;;21.00;99.90;;;;;;5062464;28;20037;-79
2022/08/26 01:26:39;;;;;;;33.25;19.00;;;21.00;99.90;;;;;;5046222;28;20044;-79
2022/08/26 01:29:07;;;;;;;28.08;19.10;;;21.10;99.90;;;;;;5044701;28;20174;-80
2022/08/26 01:31:43;;;;;;;28.45;18.35;;;21.10;99.90;;;;;;5026675;28;20047;-79
2022/08/26 01:34:17;;;;;;;26.02;18.45;;;21.10;99.90;;;;;;5040900;28;20049;-78
2022/08/26 01:36:43;;;;;;;;;;;21.00;99.90;;;;;;5044781;28;20037;-79
2022/08/26 01:39:09;;;;;;;30.35;17.65;;;21.10;99.90;;;;;;5041249;28;19969;-79
2022/08/26 01:41:35;;;;;;;29.88;18.55;;;21.00;99.90;;;;;;5046043;28;20380;-79
2022/08/26 01:44:03;;;;;;;28.70;18.35;;;21.00;99.90;;;;;;5045542;28;20095;-80
2022/08/26 01:46:30;;;;;;;30.20;17.70;;;20.90;99.90;;;;;;5046214;28;20029;-78
2022/08/26 01:48:59;;;;;;;27.92;18.13;;;20.90;99.90;;;;;;5041647;28;20067;-79
2022/08/26 01:51:26;;;;;;;27.20;17.83;;;21.00;99.90;;;;;;5045959;28;20037;-79
2022/08/26 01:53:52;;;;;;;25.98;18.83;;;21.00;99.90;;;;;;5042574;28;20108;-78
2022/08/26 01:56:19;;;;;;;27.77;17.80;;;21.00;99.90;;;;;;5040916;28;20044;-79
2022/08/26 01:58:50;;;;;;;32.50;18.45;;;21.00;99.90;;;;;;5045404;28;20404;-80
2022/08/26 02:01:18;;;;;;;31.92;19.27;;;21.00;99.90;;;;;;5046034;28;20040;-78
2022/08/26 02:04:14;;;;;;;23.23;17.65;;;21.00;99.90;;;;;;5042749;28;20090;-78
2022/08/26 02:06:40;;;;;;;29.10;19.08;;;21.00;99.90;;;;;;5045826;28;20060;-79
2022/08/26 02:09:06;;;;;;;32.58;16.98;;;21.00;99.90;;;;;;5043416;28;20029;-78
2022/08/26 02:11:33;;;;;;;26.10;17.48;;;21.00;99.90;;;;;;5045123;28;20403;-80
2022/08/26 02:14:27;;;;;;;32.40;19.77;;;21.00;99.90;;;;;;5026835;28;20052;-79
2022/08/26 02:16:54;;;;;;;30.92;17.98;;;21.00;99.90;;;;;;5043445;28;20640;-80
2022/08/26 02:19:28;;;;;;;34.67;19.40;;;20.90;99.90;;;;;;5042370;28;20041;-80
2022/08/26 02:21:56;;;;;;;30.15;19.45;;;21.00;99.90;;;;;;5045454;28;20037;-79
2022/08/26 02:24:27;;;;;;;34.10;18.13;;;21.00;99.90;;;;;;5045611;28;20033;-80
2022/08/26 02:26:53;;;;;;;27.23;17.58;;;21.00;99.90;;;;;;5024123;28;20041;-78
2022/08/26 02:29:22;;;;;;;30.42;18.42;;;21.00;99.90;;;;;;5041532;28;20037;-79
2022/08/26 02:31:48;;;;;;;30.33;18.15;;;21.00;99.90;;;;;;5043755;28;20049;-78
2022/08/26 02:34:18;;;;;;;31.27;19.17;;;20.90;99.90;;;;;;5045744;28;20044;-81
2022/08/26 02:36:44;;;;;;;33.20;18.50;;;20.90;99.90;;;;;;5046648;28;20041;-80
2022/08/26 02:39:09;;;;;;;29.38;18.50;;;20.90;99.90;;;;;;5044584;28;20123;-79
2022/08/26 02:41:35;;;;;;;31.17;18.17;;;20.90;99.90;;;;;;5046127;28;20499;-80
2022/08/26 02:44:01;;;;;;;28.92;17.95;;;20.90;99.90;;;;;;5044743;28;20056;-80
2022/08/26 02:46:27;;;;;;;30.52;17.48;;;20.90;99.90;;;;;;5028316;28;20120;-81
2022/08/26 02:48:52;;;;;;;26.02;18.27;;;20.90;99.90;;;;;;5044052;28;20040;-80
2022/08/26 02:51:18;;;;;;;26.33;17.27;;;20.80;99.90;;;;;;5047179;28;20040;-78
2022/08/26 02:53:43;;;;;;;25.55;17.20;;;20.80;99.90;;;;;;5049083;28;20491;-81
2022/08/26 02:56:09;;;;;;;28.40;17.55;;;20.80;99.90;;;;;;5048560;28;20041;-79
2022/08/26 02:58:35;;;;;;;29.48;18.38;;;20.80;99.90;;;;;;5032475;28;20037;-80
2022/08/26 03:01:01;;;;;;;31.58;18.80;;;20.80;99.90;;;;;;5065840;28;20037;-81
2022/08/26 03:03:27;;;;;;;24.13;17.15;;;20.80;99.90;;;;;;5048527;28;20040;-79
2022/08/26 03:05:52;;;;;;;30.55;18.75;;;20.90;99.90;;;;;;5047424;28;20032;-81
2022/08/26 03:08:18;;;;;;;27.40;17.40;;;20.90;99.90;;;;;;5048941;28;20056;-80
2022/08/26 03:10:46;;;;;;;31.13;16.88;;;20.90;99.90;;;;;;5048113;28;20036;-80
2022/08/26 03:13:11;;;;;;;27.77;15.95;;;20.90;99.90;;;;;;5048562;28;20052;-80
2022/08/26 03:15:37;;;;;;;26.20;15.50;;;20.90;99.90;;;;;;5048688;28;20078;-80
2022/08/26 03:18:04;;;;;;;28.05;15.23;;;20.90;99.90;;;;;;5048902;28;20037;-80
2022/08/26 03:20:29;;;;;;;28.95;15.20;;;20.80;99.90;;;;;;5028067;28;20041;-79
2022/08/26 03:22:55;;;;;;;24.80;14.43;;;20.80;99.90;;;;;;5031270;28;20048;-79
2022/08/26 03:25:21;;;;;;;25.65;14.50;;;20.80;99.90;;;;;;5028030;28;20029;-80
2022/08/26 03:27:48;;;;;;;22.58;14.38;;;20.90;99.90;;;;;;5047075;28;20179;-79
2022/08/26 03:32:59;;;;;;;21.08;14.10;;;20.90;99.90;;;;;;5046315;28;20051;-80
2022/08/26 03:35:25;;;;;;;26.02;13.00;;;20.80;99.90;;;;;;5046922;28;20660;-80
2022/08/26 03:37:51;;;;;;;20.90;13.27;;;20.90;99.90;;;;;;5048946;28;20052;-79
2022/08/26 03:40:18;;;;;;;26.63;14.95;;;20.90;99.90;;;;;;5048424;28;20039;-80
2022/08/26 03:42:44;;;;;;;21.27;14.27;;;20.90;99.90;;;;;;5047656;28;20036;-81
2022/08/26 03:45:11;;;;;;;23.63;15.20;;;20.80;99.90;;;;;;5031833;28;20113;-79
2022/08/26 03:47:38;;;;;;;23.10;14.13;;;20.80;99.90;;;;;;5026059;28;20037;-79
2022/08/26 03:50:07;;;;;;;22.17;14.60;;;20.80;99.90;;;;;;5029335;28;20103;-81
2022/08/26 03:52:33;;;;;;;25.73;14.45;;;20.80;99.90;;;;;;5046542;28;20048;-80
2022/08/26 03:54:58;;;;;;;19.77;13.73;;;20.70;99.90;;;;;;5048678;28;20073;-79
2022/08/26 03:57:24;;;;;;;26.67;15.02;;;20.70;99.90;;;;;;5046274;28;20047;-80
2022/08/26 03:59:50;;;;;;;21.83;14.18;;;20.70;99.90;;;;;;5047525;28;20490;-79
2022/08/26 04:02:16;;;;;;;20.58;13.82;;;20.70;99.90;;;;;;5045511;28;20495;-79
2022/08/26 04:04:41;;;;;;;19.88;12.23;;;20.70;99.90;;;;;;5048159;28;20032;-79
2022/08/26 04:07:07;;;;;;;25.92;14.13;;;20.70;99.90;;;;;;5044625;28;20047;-82
2022/08/26 04:09:33;;;;;;;22.02;12.75;;;20.60;99.90;;;;;;5063804;28;20078;-78
2022/08/26 04:11:58;;;;;;;17.92;12.02;;;20.70;99.90;;;;;;5046862;28;20037;-80
2022/08/26 04:14:26;;;;;;;24.25;12.85;;;20.60;99.90;;;;;;5046180;28;20035;-79
2022/08/26 04:16:53;;;;;;;20.77;13.02;;;20.60;99.90;;;;;;5048107;28;20032;-80
2022/08/26 04:19:20;;;;;;;19.27;12.65;;;20.70;99.90;;;;;;5042110;28;20036;-81
2022/08/26 04:21:47;;;;;;;20.15;11.73;;;20.60;99.90;;;;;;5060305;28;20155;-79
2022/08/26 04:24:15;;;;;;;20.80;11.23;;;20.60;99.90;;;;;;5023745;28;20041;-79
2022/08/26 04:26:41;;;;;;;22.05;11.85;;;20.60;99.90;;;;;;5048283;28;20079;-79
2022/08/26 04:29:14;;;;;;;17.70;11.10;;;20.70;99.90;;;;;;5045353;28;20090;-79
2022/08/26 04:31:40;;;;;;;18.48;12.32;;;20.70;99.90;;;;;;5046847;28;20445;-79
2022/08/26 04:34:07;;;;;;;20.00;12.13;;;20.60;99.90;;;;;;5045641;28;20037;-80
2022/08/26 04:36:33;;;;;;;26.10;12.75;;;20.60;99.90;;;;;;5047761;28;20141;-80
2022/08/26 04:39:00;;;;;;;17.55;12.13;;;20.50;99.90;;;;;;5043945;28;20212;-81
2022/08/26 04:41:26;;;;;;;19.88;10.65;;;20.50;99.90;;;;;;5030348;28;20529;-79
2022/08/26 04:43:52;;;;;;;17.80;11.60;;;20.60;99.90;;;;;;5045785;28;20419;-80
2022/08/26 04:46:24;;;;;;;17.83;10.93;;;20.60;99.90;;;;;;5037564;28;20037;-80
2022/08/26 04:48:51;;;;;;;19.10;10.52;;;20.60;99.90;;;;;;5040257;28;20545;-79
2022/08/26 04:51:19;;;;;;;21.98;10.63;;;20.60;99.90;;;;;;5047124;28;20132;-79
2022/08/26 04:53:45;;;;;;;23.75;10.52;;;20.60;99.90;;;;;;5044441;28;20403;-80
2022/08/26 04:56:11;;;;;;;22.05;10.20;;;20.50;99.90;;;;;;5047092;28;20557;-80
2022/08/26 04:58:37;;;;;;;21.83;10.13;;;20.60;99.90;;;;;;5046443;28;20811;-79
2022/08/26 05:01:03;;;;;;;20.38;9.68;;;20.60;99.90;;;;;;5043971;28;20084;-80
2022/08/26 05:03:29;;;;;;;21.00;11.32;;;20.60;99.90;;;;;;5046355;28;20041;-80
2022/08/26 05:05:55;;;;;;;20.52;10.55;;;20.60;99.90;;;;;;5027879;28;20467;-80
2022/08/26 05:08:22;;;;;;;21.85;11.07;;;20.50;99.90;;;;;;5044529;28;20029;-78
2022/08/26 05:10:53;;;;;;;20.75;9.40;;;20.50;99.90;;;;;;5045505;28;20067;-78
2022/08/26 05:13:20;;;;;;;19.27;10.10;;;20.50;99.90;;;;;;5046322;28;20120;-79
2022/08/26 05:15:47;;;;;;;20.15;9.82;;;20.60;99.90;;;;;;5042785;28;20097;-79
2022/08/26 05:18:15;;;;;;;18.52;9.75;;;20.60;99.90;;;;;;5045230;28;20068;-81
2022/08/26 05:20:44;;;;;;;17.10;9.15;;;20.60;99.90;;;;;;5045252;28;20470;-80
2022/08/26 05:23:10;;;;;;;19.00;8.95;;;20.60;99.90;;;;;;5029167;28;20045;-79
2022/08/26 05:25:39;;;;;;;18.50;9.85;;;20.70;99.90;;;;;;5042099;28;20056;-79
2022/08/26 05:28:04;;;;;;;20.92;9.52;;;20.70;99.90;;;;;;5044681;28;20049;-79
2022/08/26 05:30:30;;;;;;;22.48;9.32;;;20.70;99.90;;;;;;5027227;28;20513;-79
2022/08/26 05:32:56;;;;;;;19.27;9.70;;;20.70;99.90;;;;;;5045972;28;20039;-79
2022/08/26 05:35:21;;;;;;;21.85;10.27;;;20.70;99.90;;;;;;5027236;28;20037;-79
2022/08/26 05:37:48;;;;;;;19.17;9.98;;;20.70;99.90;;;;;;5042103;28;20041;-79
2022/08/26 05:40:14;;;;;;;21.35;10.07;;;20.70;99.90;;;;;;5036751;28;20434;-78
2022/08/26 05:42:39;;;;;;;18.92;10.13;;;20.70;99.90;;;;;;5018784;28;20134;-79
2022/08/26 05:45:06;;;;;;;21.45;9.40;;;20.80;99.90;;;;;;5045551;28;20080;-79
2022/08/26 05:47:31;;;;;;;20.17;8.88;;;20.70;99.90;;;;;;5050329;28;20201;-79
2022/08/26 05:49:57;;;;;;;19.98;9.88;;;20.80;99.90;;;;;;5049956;28;20048;-80
2022/08/26 05:52:23;;;;;;;19.08;8.88;;;20.80;99.90;;;;;;5048624;28;20072;-79
2022/08/26 05:54:48;;;;;;;19.60;8.52;;;20.80;99.90;;;;;;5050585;28;20086;-79
2022/08/26 05:57:14;;;;;;;20.02;9.13;;;20.80;99.90;;;;;;5049127;28;20060;-78
2022/08/26 05:59:40;;;;;;;19.80;8.43;;;20.80;99.90;;;;;;5049451;28;20047;-79
2022/08/26 06:02:06;;;;;;;17.10;8.10;;;20.80;99.90;;;;;;5028882;28;20033;-79
2022/08/26 06:04:31;;;;;;;14.82;7.90;;;20.80;99.90;;;;;;5043480;28;20051;-79
2022/08/26 06:06:57;;;;;;;22.33;7.70;;;20.90;99.90;;;;;;5045222;28;20045;-79
2022/08/26 06:09:23;;;;;;;14.30;7.00;;;20.90;99.90;;;;;;5041864;28;20088;-79
2022/08/26 06:11:49;;;;;;;13.90;7.30;;;20.90;99.90;;;;;;5046703;28;20061;-82
2022/08/26 06:14:16;;;;;;;15.35;7.18;;;21.00;99.90;;;;;;5047626;28;20095;-83
2022/08/26 06:16:43;;;;;;;19.17;7.22;;;21.00;99.90;;;;;;5046928;28;20502;-84
2022/08/26 06:19:10;;;;;;;17.83;6.90;;;21.10;99.90;;;;;;5046779;28;20037;-81
2022/08/26 06:21:38;;;;;;;14.23;7.22;;;21.10;99.90;;;;;;5044307;28;20037;-80
2022/08/26 06:26:56;;;;;;;18.23;6.35;;;21.00;99.90;;;;;;5066622;28;20060;-81
2022/08/26 06:29:26;;;;;;;13.75;6.15;;;21.00;99.90;;;;;;5030874;28;20507;-81
2022/08/26 06:31:53;;;;;;;11.60;5.28;;;21.10;99.90;;;;;;5054935;28;20438;-80
2022/08/26 06:34:19;;;;;;;12.10;5.32;;;21.10;99.90;;;;;;5052706;28;20095;-79
2022/08/26 06:36:46;;;;;;;13.02;5.22;;;21.00;99.90;;;;;;5045855;28;20041;-77
2022/08/26 06:39:13;;;;;;;14.18;5.85;;;21.10;99.90;;;;;;5052453;28;20044;-79
2022/08/26 06:41:39;;;;;;;16.17;5.47;;;21.10;99.90;;;;;;5046525;28;20094;-78
2022/08/26 06:44:06;;;;;;;15.55;5.18;;;21.10;99.90;;;;;;5043890;28;20441;-79
2022/08/26 06:46:32;;;;;;;16.85;5.15;;;21.10;99.90;;;;;;5052589;28;20032;-78
2022/08/26 06:48:58;;;;;;;13.02;4.82;;;21.00;99.90;;;;;;5054187;28;20033;-79
2022/08/26 06:51:27;;;;;;;17.88;5.25;;;20.90;99.90;;;;;;5048940;28;20037;-78
2022/08/26 06:53:55;;;;;;;13.57;4.82;;;20.90;99.90;;;;;;5034969;28;20092;-80
2022/08/26 06:56:23;;;;;;;14.07;5.15;;;20.90;99.90;;;;;;5047073;28;20391;-80
2022/08/26 06:58:50;;;;;;;13.98;5.47;;;20.80;99.90;;;;;;5051821;28;20048;-79
2022/08/26 07:01:19;;;;;;;13.85;4.55;;;20.80;99.90;;;;;;5048301;28;20410;-78
2022/08/26 07:03:47;;;;;;;14.23;4.80;;;20.80;99.90;;;;;;5053537;28;20033;-78
2022/08/26 07:06:13;;;;;;;13.48;4.78;;;20.80;99.90;;;;;;5029852;28;20160;-78
2022/08/26 07:08:38;;;;;;;13.02;4.72;;;20.80;99.90;;;;;;5047457;28;20033;-79
2022/08/26 07:11:07;;;;;;;16.73;4.38;;;20.80;99.90;;;;;;5048361;28;20566;-79
2022/08/26 07:13:36;;;;;;;12.18;4.10;;;20.80;99.90;;;;;;5053237;28;20056;-79
2022/08/26 07:16:13;;;;;;;15.68;4.47;;;20.70;99.90;;;;;;5053333;28;20457;-78
2022/08/26 07:18:41;;;;;;;12.32;4.10;;;20.70;99.90;;;;;;5037076;28;20033;-79
2022/08/26 07:21:10;;;;;;;14.02;4.45;;;20.80;99.90;;;;;;5054720;28;20455;-79
2022/08/26 07:23:36;;;;;;;11.15;4.30;;;20.80;99.90;;;;;;5053449;28;20040;-79
2022/08/26 07:26:15;;;;;;;9.93;4.10;;;20.80;99.90;;;;;;5028314;28;20065;-78
2022/08/26 07:28:42;;;;;;;19.38;4.07;;;20.80;99.90;;;;;;5053482;28;20059;-78
2022/08/26 07:31:09;;;;;;;11.07;3.83;;;20.80;99.90;;;;;;5053856;28;20037;-80
2022/08/26 07:33:36;;;;;;;10.35;3.70;;;20.90;99.90;;;;;;5052687;28;20089;-78
2022/08/26 07:36:03;;;;;;;8.82;3.42;;;21.00;99.90;;;;;;5053727;28;20048;-78
2022/08/26 07:38:28;;;;;;;12.25;3.90;;;21.00;99.90;;;;;;5036423;28;20040;-79
2022/08/26 07:40:54;;;;;;;13.00;4.00;;;21.00;99.90;;;;;;5053632;28;20060;-78
2022/08/26 07:43:20;;;;;;;9.63;3.20;;;21.00;99.90;;;;;;5054500;28;20056;-79
2022/08/26 07:45:46;;;;;;;8.23;2.55;;;21.10;99.90;;;;;;5051725;28;20036;-78
2022/08/26 07:48:11;;;;;;;11.25;3.10;;;21.10;99.90;;;;;;5033572;28;20445;-79
2022/08/26 07:50:39;;;;;;;9.00;2.50;;;21.00;99.90;;;;;;5036720;28;20387;-79
2022/08/26 07:53:04;;;;;;;11.30;2.65;;;21.10;99.90;;;;;;5050575;28;20064;-78
2022/08/26 07:55:30;;;;;;;11.40;2.65;;;21.20;99.90;;;;;;5052619;28;20045;-78
2022/08/26 07:57:56;;;;;;;10.68;2.70;;;21.10;99.90;;;;;;5053271;28;20059;-78
2022/08/26 08:00:23;;;;;;;12.90;3.00;;;21.20;99.90;;;;;;5050923;28;20045;-77
2022/08/26 08:02:49;;;;;;;11.38;2.58;;;21.20;99.90;;;;;;5052255;28;20069;-78
2022/08/26 08:05:17;;;;;;;11.65;2.47;;;21.20;99.90;;;;;;5036402;28;20425;-79
2022/08/26 08:07:45;;;;;;;11.60;2.60;;;21.20;99.90;;;;;;5049622;28;20746;-79
2022/08/26 08:10:18;;;;;;;15.93;2.88;;;21.30;99.90;;;;;;5057126;28;20029;-79
2022/08/26 08:12:44;;;;;;;8.75;2.28;;;21.50;99.90;;;;;;5049871;28;20395;-79
2022/08/26 08:15:12;;;;;;;10.35;2.83;;;21.70;99.90;;;;;;5047798;28;20040;-79
2022/08/26 08:17:38;;;;;;;10.43;2.58;;;21.70;99.90;;;;;;5052545;28;20067;-80
2022/08/26 08:20:05;;;;;;;12.23;2.28;;;21.80;99.90;;;;;;5051589;28;20051;-79
2022/08/26 08:22:31;;;;;;;9.30;2.33;;;21.70;99.90;;;;;;5034623;28;20037;-79
2022/08/26 08:24:57;;;;;;;10.75;2.25;;;21.60;99.90;;;;;;5052119;28;20037;-79
2022/08/26 08:27:24;;;;;;;10.07;2.10;;;21.50;99.90;;;;;;5052436;28;20071;-79
2022/08/26 08:29:53;;;;;;;11.23;2.20;;;21.40;99.90;;;;;;5054277;28;20407;-79
2022/08/26 08:32:18;;;;;;;6.95;1.67;;;21.30;99.90;;;;;;5034206;28;20075;-79
2022/08/26 08:34:44;;;;;;;12.18;2.38;;;21.20;99.90;;;;;;5044012;28;20064;-79
2022/08/26 08:37:10;;;;;;;7.82;2.05;;;21.10;99.90;;;;;;5052500;28;20399;-80
2022/08/26 08:39:35;;;;;;;9.05;1.95;;;21.10;99.90;;;;;;5052875;28;20037;-79
2022/08/26 08:42:32;;;;;;;10.38;1.90;;;21.10;99.90;;;;;;5052970;28;20510;-78
2022/08/26 08:45:03;;;;;;;8.75;1.90;;;21.20;99.90;;;;;;5043339;28;20598;-79
2022/08/26 08:47:43;;;;;;;7.72;2.20;;;21.10;99.90;;;;;;5053031;28;20033;-80
2022/08/26 08:50:19;;;;;;;8.98;2.00;;;21.00;99.90;;;;;;5052213;28;20128;-79
2022/08/26 08:52:50;;;;;;;7.53;1.80;;;20.90;99.90;;;;;;5051866;28;20037;-79
2022/08/26 08:55:16;;;;;;;10.23;1.70;;;20.90;99.90;;;;;;5050519;28;20117;-78
2022/08/26 08:58:00;;;;;;;6.90;2.00;;;20.90;99.90;;;;;;5051552;28;20064;-79
2022/08/26 09:00:29;;;;;;;6.90;1.90;;;20.80;99.90;;;;;;5032284;28;20127;-79
2022/08/26 09:03:10;;;;;;;9.32;2.03;;;20.70;99.90;;;;;;5052049;28;20116;-78
2022/08/26 09:05:40;;;;;;;8.43;1.85;;;20.70;99.90;;;;;;5051504;28;20120;-79
2022/08/26 09:08:10;;;;;;;10.93;2.20;;;20.70;99.90;;;;;;5049817;28;20057;-79
2022/08/26 09:10:37;;;;;;;12.18;2.67;;;20.80;99.90;;;;;;5052270;28;20049;-78
2022/08/26 09:13:12;;;;;;;11.30;2.53;;;20.80;99.90;;;;;;5026845;28;20120;-79
2022/08/26 09:15:58;;;;;;;8.55;2.85;;;20.90;99.90;;;;;;5032272;28;20045;-78
2022/08/26 09:19:04;;;;;;;10.30;2.20;;;21.00;99.90;;;;;;5035833;28;20037;-78
2022/08/26 09:21:31;;;;;;;12.70;2.45;;;21.10;99.90;;;;;;5050744;28;20101;-78
2022/08/26 09:23:57;;;;;;;7.97;2.42;;;21.30;99.90;;;;;;5020112;28;20041;-78
2022/08/26 09:26:39;;;;;;;9.52;2.20;;;21.40;99.90;;;;;;5033312;28;20043;-77
2022/08/26 09:29:17;;;;;;;8.82;2.28;;;21.40;99.90;;;;;;5051083;28;20036;-79
2022/08/26 09:31:43;;;;;;;13.30;2.33;;;21.50;99.90;;;;;;5033342;28;20045;-78
2022/08/26 09:34:13;;;;;;;12.15;2.15;;;21.50;99.90;;;;;;5052636;28;20051;-80
2022/08/26 09:36:48;;;;;;;13.82;2.60;;;21.50;99.90;;;;;;5052737;28;20120;-78
2022/08/26 09:39:25;;;;;;;8.07;2.17;;;21.40;99.90;;;;;;5045964;28;20041;-79
2022/08/26 09:42:10;;;;;;;8.93;2.38;;;21.50;99.90;;;;;;5051854;28;20437;-78
2022/08/26 09:44:58;;;;;;;11.60;2.35;;;21.60;99.90;;;;;;5028102;28;20076;-79
2022/08/26 09:47:35;;;;;;;9.75;2.20;;;21.70;99.90;;;;;;5051952;28;20098;-79
2022/08/26 09:50:18;;;;;;;8.25;2.20;;;21.80;99.90;;;;;;5030337;28;20059;-79
2022/08/26 09:52:44;;;;;;;12.10;2.50;;;21.90;99.90;;;;;;5052048;28;20033;-79
2022/08/26 09:55:19;;;;;;;7.70;2.10;;;21.90;99.90;;;;;;5052126;28;20095;-79
2022/08/26 09:57:51;;;;;;;11.57;2.03;;;21.90;99.90;;;;;;5050947;28;20037;-79
2022/08/26 10:00:38;;;;;;;9.75;2.25;;;21.90;99.90;;;;;;5052614;28;20041;-77
2022/08/26 10:03:09;;;;;;;12.48;2.28;;;21.80;99.90;;;;;;5042634;28;20029;-77
2022/08/26 10:05:43;;;;;;;16.95;2.72;;;21.80;99.90;;;;;;5056118;28;20033;-79
2022/08/26 10:08:30;;;;;;;12.10;3.15;;;21.70;99.90;;;;;;5040228;28;20040;-79
2022/08/26 10:11:00;;;;;;;9.85;2.00;;;21.60;99.90;;;;;;5055716;28;20037;-78
2022/08/26 10:13:36;;;;;;;5.95;1.73;;;21.50;99.90;;;;;;5055877;28;20056;-78
2022/08/26 10:16:17;;;;;;;5.93;1.70;;;21.60;99.90;;;;;;5054714;28;20041;-78
2022/08/26 10:18:55;;;;;;;9.20;2.08;;;21.60;99.90;;;;;;5037060;28;20053;-79
2022/08/26 10:21:27;;;;;;;7.80;2.13;;;21.70;99.90;;;;;;5056221;28;20041;-78
2022/08/26 10:23:56;;;;;;;7.38;1.98;;;21.70;99.90;;;;;;5055192;28;20048;-79
2022/08/26 10:26:26;;;;;;;10.27;2.53;;;21.80;99.90;;;;;;5055370;28;20033;-79
2022/08/26 10:29:00;;;;;;;9.57;2.33;;;21.80;99.90;;;;;;5055322;28;20041;-79
2022/08/26 10:31:38;;;;;;;8.25;2.20;;;21.70;99.90;;;;;;5055125;28;20041;-79
2022/08/26 10:34:04;;;;;;;7.43;1.60;;;21.80;99.90;;;;;;5067684;28;20041;-79
2022/08/26 10:36:48;;;;;;;6.78;1.80;;;21.70;99.90;;;;;;5052737;28;20045;-79
2022/08/26 10:39:22;;;;;;;7.90;1.88;;;21.70;99.90;;;;;;5054653;28;20044;-79
2022/08/26 10:41:51;;;;;;;6.05;1.75;;;21.70;99.90;;;;;;5034956;28;20054;-78
2022/08/26 10:44:18;;;;;;;10.25;2.33;;;21.70;99.90;;;;;;5034090;28;20507;-78
2022/08/26 10:46:48;;;;;;;10.65;1.92;;;21.60;99.90;;;;;;5034342;28;20569;-78
2022/08/26 10:49:16;;;;;;;9.02;1.83;;;21.50;99.90;;;;;;5053163;28;20402;-79
2022/08/26 10:52:02;;;;;;;8.23;1.70;;;21.40;99.90;;;;;;5054507;28;20123;-78
2022/08/26 10:55:05;;;;;;;11.73;1.70;;;21.40;99.90;;;;;;5034435;28;20639;-79
2022/08/26 10:57:41;;;;;;;9.80;2.05;;;21.50;99.90;;;;;;5047513;28;20049;-78
2022/08/26 11:03:11;;;;;;;8.02;2.13;;;21.60;99.90;;;;;;5051593;28;20134;-77
2022/08/26 11:05:37;;;;;;;7.72;1.70;;;21.70;99.90;;;;;;5052090;28;20037;-79
2022/08/26 11:08:18;;;;;;;9.40;1.73;;;21.60;99.90;;;;;;5053864;28;20044;-81
2022/08/26 11:10:56;;;;;;;10.57;1.80;;;21.70;99.90;;;;;;5052075;28;20124;-81
2022/08/26 11:13:56;;;;;;;9.80;1.80;;;21.50;99.90;;;;;;5051737;28;20037;-78
2022/08/26 11:16:58;;;;;;;11.60;2.05;;;21.30;99.90;;;;;;5030328;28;20048;-78
2022/08/26 11:19:37;;;;;;;9.07;2.10;;;21.20;99.90;;;;;;4992052;28;20042;-79
2022/08/26 11:22:08;;;;;;;10.82;2.10;;;21.00;99.90;;;;;;5039229;28;20187;-78
2022/08/26 11:25:05;;;;;;;10.25;2.00;;;20.90;99.90;;;;;;5051309;28;20056;-78
2022/08/26 11:27:33;;;;;;;7.63;2.15;;;20.90;99.90;;;;;;5035608;28;20033;-78
2022/08/26 11:30:19;;;;;;;8.40;2.00;;;21.00;99.90;;;;;;5033490;28;20127;-77
2022/08/26 11:32:57;;;;;;;10.45;1.70;;;21.00;99.90;;;;;;5027937;28;20040;-78
2022/08/26 11:35:23;;;;;;;7.03;1.92;;;21.00;99.90;;;;;;5051400;28;20060;-78
2022/08/26 11:37:50;;;;;;;7.13;2.13;;;21.00;99.90;;;;;;5052207;28;20040;-79
2022/08/26 11:40:20;;;;;;;9.23;2.03;;;21.00;99.90;;;;;;5047077;28;20063;-78
2022/08/26 11:42:56;;;;;;;7.82;2.10;;;21.00;99.90;;;;;;5051752;28;20514;-78
2022/08/26 11:45:40;;;;;;;11.13;2.10;;;20.90;99.90;;;;;;5016447;28;20660;-78
2022/08/26 11:48:29;;;;;;;7.22;2.30;;;21.00;99.90;;;;;;5044974;28;20029;-78
2022/08/26 11:51:20;;;;;;;8.70;2.22;;;21.00;99.90;;;;;;5043733;28;20068;-79
2022/08/26 11:53:45;;;;;;;5.45;1.92;;;21.20;99.90;;;;;;5014059;28;1032127;-80
2022/08/26 11:56:27;;;;;;;9.18;2.22;;;21.40;99.90;;;;;;5047042;28;20565;-78
2022/08/26 11:58:56;;;;;;;10.80;2.42;;;21.70;99.90;;;;;;5040022;28;20045;-79
2022/08/26 12:01:48;;;;;;;11.77;2.70;;;21.80;99.90;;;;;;5034958;28;20503;-78
2022/08/26 12:04:36;;;;;;;11.10;2.50;;;21.80;99.90;;;;;;5027286;28;20457;-81
2022/08/26 12:07:03;;;;;;;10.73;2.38;;;21.60;99.90;;;;;;5051778;28;20037;-79
2022/08/26 12:09:33;;;;;;;4.20;1.70;;;21.40;99.90;;;;;;5043243;28;20048;-78
2022/08/26 12:12:17;;;;;;;9.40;2.20;;;21.30;99.90;;;;;;5046719;28;20033;-79
2022/08/26 12:14:43;;;;;;;5.18;1.52;;;21.10;99.90;;;;;;5060674;28;20526;-78
2022/08/26 12:17:10;;;;;;;4.40;1.42;;;21.20;99.90;;;;;;5063989;28;20062;-78
2022/08/26 12:19:36;;;;;;;3.60;1.20;;;21.10;99.90;;;;;;5021137;28;20376;-78
2022/08/26 12:22:27;;;;;;;3.67;1.30;;;21.20;99.90;;;;;;5051232;28;20052;-80
2022/08/26 12:24:59;;;;;;;3.10;1.15;;;21.10;99.90;;;;;;5050309;28;20051;-77
2022/08/26 12:27:38;;;;;;;5.85;1.40;;;21.10;99.90;;;;;;5052856;28;20086;-78
2022/08/26 12:30:09;;;;;;;6.45;1.40;;;21.10;99.90;;;;;;5050583;28;20037;-78
2022/08/26 12:32:38;;;;;;;6.53;1.30;;;21.10;99.90;;;;;;5052576;28;20037;-78
2022/08/26 12:35:07;;;;;;;3.53;1.33;;;21.10;99.90;;;;;;5035103;28;20037;-78
2022/08/26 12:37:36;;;;;;;6.80;1.58;;;21.00;99.90;;;;;;5051906;28;20044;-79
2022/08/26 12:40:30;;;;;;;5.53;1.40;;;21.10;99.90;;;;;;5051142;28;20099;-79
2022/08/26 12:43:00;;;;;;;6.88;1.73;;;21.00;99.90;;;;;;5034960;28;20040;-78
2022/08/26 12:45:33;;;;;;;4.68;1.25;;;21.10;99.90;;;;;;5051272;28;20045;-79
2022/08/26 12:48:04;;;;;;;4.22;1.38;;;21.10;99.90;;;;;;5050045;28;20438;-79
2022/08/26 12:50:33;;;;;;;6.20;1.60;;;21.10;99.90;;;;;;5050769;28;20055;-78
2022/08/26 12:53:07;;;;;;;8.40;1.58;;;21.10;99.90;;;;;;5050717;28;20037;-78
2022/08/26 12:55:34;;;;;;;7.82;1.85;;;21.00;99.90;;;;;;5052736;28;20076;-78
2022/08/26 12:58:23;;;;;;;8.70;1.90;;;21.00;99.90;;;;;;5052599;28;20047;-78
2022/08/26 13:00:51;;;;;;;7.47;2.55;;;20.90;99.90;;;;;;5051900;28;20128;-79